createdAt,value
2017-11-15T00:00:28.975Z,70.50
2017-11-15T00:02:56.631Z,70.20
2017-11-15T00:05:24.266Z,70.90
2017-11-15T00:07:51.895Z,70.60
2017-11-15T00:10:19.554Z,72.00
2017-11-15T00:12:47.187Z,70.90
2017-11-15T00:15:14.895Z,70.70
2017-11-15T00:17:43.293Z,72.20
2017-11-15T00:20:10.915Z,72.00
2017-11-15T00:22:38.575Z,72.90
2017-11-15T00:25:06.218Z,71.90
2017-11-15T00:27:33.875Z,71.30
2017-11-15T00:30:01.527Z,72.50
2017-11-15T00:32:29.162Z,72.20
2017-11-15T00:34:56.826Z,71.60
2017-11-15T00:37:24.465Z,72.30
2017-11-15T00:39:52.131Z,71.30
2017-11-15T00:42:19.770Z,71.90
2017-11-15T00:44:47.396Z,73.50
2017-11-15T00:47:15.047Z,74.10
2017-11-15T00:49:42.681Z,75.10
2017-11-15T00:52:10.335Z,75.00
2017-11-15T00:54:37.964Z,76.40
2017-11-15T00:57:05.601Z,75.70
2017-11-15T00:59:34.026Z,75.80
2017-11-15T01:02:01.649Z,75.70
2017-11-15T01:04:29.300Z,75.30
2017-11-15T01:06:56.937Z,75.20
2017-11-15T01:09:24.568Z,76.00
2017-11-15T01:11:52.220Z,76.70
2017-11-15T01:14:19.855Z,77.90
2017-11-15T01:16:47.512Z,77.40
2017-11-15T01:19:15.135Z,77.70
2017-11-15T01:21:43.536Z,79.50
2017-11-15T01:24:11.191Z,79.50
2017-11-15T01:26:38.845Z,78.80
2017-11-15T01:29:06.502Z,78.80
2017-11-15T01:31:34.129Z,79.60
2017-11-15T01:34:01.771Z,79.60
2017-11-15T01:36:29.424Z,78.40
2017-11-15T01:38:57.052Z,78.70
2017-11-15T01:41:24.704Z,78.40
2017-11-15T01:43:52.356Z,79.20
2017-11-15T01:46:20.138Z,79.00
2017-11-15T01:48:47.799Z,80.20
2017-11-15T01:51:15.422Z,79.80
2017-11-15T01:53:43.116Z,79.50
2017-11-15T01:56:11.507Z,79.10
2017-11-15T01:58:39.126Z,79.00
2017-11-15T02:01:14.620Z,79.50
2017-11-15T02:03:42.243Z,79.70
2017-11-15T02:06:09.900Z,80.80
2017-11-15T02:08:37.533Z,79.50
2017-11-15T02:11:05.168Z,80.40
2017-11-15T02:13:32.832Z,80.90
2017-11-15T02:16:00.452Z,80.10
2017-11-15T02:18:28.110Z,81.00
2017-11-15T02:20:55.747Z,81.60
2017-11-15T02:23:23.379Z,81.80
2017-11-15T02:25:51.044Z,82.20
2017-11-15T02:28:18.664Z,83.00
2017-11-15T02:30:46.345Z,81.50
2017-11-15T02:33:13.963Z,81.60
2017-11-15T02:35:41.595Z,81.80
2017-11-15T02:38:10.017Z,83.40
2017-11-15T02:40:37.653Z,83.40
2017-11-15T02:43:05.306Z,83.10
2017-11-15T02:45:32.948Z,83.00
2017-11-15T02:48:00.577Z,82.90
2017-11-15T02:50:28.250Z,83.00
2017-11-15T02:52:55.868Z,82.70
2017-11-15T02:55:23.529Z,83.00
2017-11-15T02:57:51.151Z,82.60
2017-11-15T03:00:18.791Z,82.30
2017-11-15T03:02:46.443Z,82.80
2017-11-15T03:05:14.080Z,82.60
2017-11-15T03:07:41.736Z,82.50
2017-11-15T03:10:09.353Z,82.60
2017-11-15T03:12:36.996Z,83.40
2017-11-15T03:15:04.646Z,84.70
2017-11-15T03:17:32.262Z,83.30
2017-11-15T03:19:59.920Z,83.40
2017-11-15T03:22:27.548Z,84.50
2017-11-15T03:24:55.172Z,84.60
2017-11-15T03:27:22.834Z,83.50
2017-11-15T03:29:50.487Z,84.70
2017-11-15T03:32:18.152Z,85.20
2017-11-15T03:34:45.778Z,85.90
2017-11-15T03:37:13.392Z,85.20
2017-11-15T03:39:41.047Z,84.80
2017-11-15T03:42:08.668Z,83.70
2017-11-15T03:44:37.102Z,85.20
2017-11-15T03:47:04.722Z,85.20
2017-11-15T03:49:32.344Z,84.20
2017-11-15T03:52:00.023Z,85.00
2017-11-15T03:54:27.657Z,84.60
2017-11-15T03:56:55.328Z,85.10
2017-11-15T03:59:22.964Z,85.30
2017-11-15T04:01:50.645Z,85.90
2017-11-15T04:04:18.295Z,86.00
2017-11-15T04:06:46.686Z,85.80
2017-11-15T04:09:14.343Z,85.70
2017-11-15T04:11:41.968Z,85.40
2017-11-15T04:14:10.361Z,85.60
2017-11-15T04:16:38.023Z,86.40
2017-11-15T04:19:05.642Z,86.70
2017-11-15T04:21:33.292Z,86.50
2017-11-15T04:24:00.914Z,86.90
2017-11-15T04:26:29.295Z,87.40
2017-11-15T04:28:56.973Z,87.40
2017-11-15T04:31:24.613Z,87.20
2017-11-15T04:33:52.270Z,87.60
2017-11-15T04:36:19.915Z,88.80
2017-11-15T04:38:47.545Z,88.20
2017-11-15T04:41:15.194Z,88.90
2017-11-15T04:43:43.706Z,89.90
2017-11-15T04:46:11.470Z,89.80
2017-11-15T04:48:39.860Z,89.60
2017-11-15T04:51:07.494Z,89.60
2017-11-15T04:53:35.160Z,89.90
2017-11-15T04:56:02.865Z,90.00
2017-11-15T04:58:30.515Z,89.70
2017-11-15T05:00:58.171Z,89.30
2017-11-15T05:03:26.551Z,88.70
2017-11-15T05:05:54.211Z,88.70
2017-11-15T05:08:21.827Z,88.90
2017-11-15T05:10:50.245Z,88.90
2017-11-15T05:13:17.875Z,88.90
2017-11-15T05:15:45.500Z,89.30
2017-11-15T05:18:13.152Z,89.30
2017-11-15T05:20:40.775Z,89.50
2017-11-15T05:23:09.251Z,89.20
2017-11-15T05:25:37.642Z,89.20
2017-11-15T05:28:05.260Z,89.20
2017-11-15T05:30:32.917Z,89.00
2017-11-15T05:33:00.536Z,88.90
2017-11-15T05:35:28.187Z,89.00
2017-11-15T05:37:56.609Z,89.20
2017-11-15T05:40:24.252Z,89.20
2017-11-15T05:42:51.906Z,89.10
2017-11-15T05:45:19.535Z,89.20
2017-11-15T05:47:47.207Z,88.80
2017-11-15T05:50:14.827Z,89.80
2017-11-15T05:52:42.454Z,90.10
2017-11-15T05:55:10.110Z,89.40
2017-11-15T05:57:37.741Z,89.80
2017-11-15T06:00:06.168Z,89.30
2017-11-15T06:02:33.797Z,89.30
2017-11-15T06:05:01.415Z,90.20
2017-11-15T06:07:29.062Z,89.90
2017-11-15T06:09:56.683Z,90.10
2017-11-15T06:12:25.141Z,90.00
2017-11-15T06:14:53.604Z,90.20
2017-11-15T06:17:21.256Z,90.20
2017-11-15T06:19:48.872Z,91.30
2017-11-15T06:22:16.530Z,93.20
2017-11-15T06:24:44.293Z,92.90
2017-11-15T06:27:11.961Z,92.80
2017-11-15T06:29:39.686Z,93.10
2017-11-15T06:32:08.036Z,93.90
2017-11-15T06:34:35.659Z,93.90
2017-11-15T06:37:03.326Z,93.00
2017-11-15T06:39:30.987Z,92.70
2017-11-15T06:41:58.602Z,93.60
2017-11-15T06:44:26.262Z,93.70
2017-11-15T06:46:53.891Z,92.80
2017-11-15T06:49:22.394Z,93.70
2017-11-15T06:51:50.821Z,93.90
2017-11-15T06:54:18.443Z,93.80
2017-11-15T06:56:46.071Z,94.10
2017-11-15T06:59:14.492Z,93.70
2017-11-15T07:01:42.103Z,93.70
2017-11-15T07:04:09.729Z,94.00
2017-11-15T07:06:37.398Z,93.80
2017-11-15T07:09:05.027Z,93.80
2017-11-15T07:11:32.648Z,94.10
2017-11-15T07:14:01.071Z,93.50
2017-11-15T07:16:28.692Z,93.30
2017-11-15T07:18:56.311Z,93.00
2017-11-15T07:21:23.984Z,93.40
2017-11-15T07:23:52.380Z,93.80
2017-11-15T07:26:20.036Z,93.80
2017-11-15T07:28:47.652Z,92.80
2017-11-15T07:31:15.276Z,92.90
2017-11-15T07:33:42.924Z,92.40
2017-11-15T07:36:10.551Z,92.30
2017-11-15T07:38:38.195Z,92.60
2017-11-15T07:41:05.808Z,91.80
2017-11-15T07:43:33.425Z,91.90
2017-11-15T07:46:01.837Z,90.30
2017-11-15T07:48:29.458Z,90.20
2017-11-15T07:50:57.116Z,89.30
2017-11-15T07:53:24.730Z,90.00
2017-11-15T07:55:53.115Z,91.70
2017-11-15T07:58:20.769Z,91.60
2017-11-15T08:00:48.387Z,90.10
2017-11-15T08:03:16.807Z,90.50
2017-11-15T08:05:44.420Z,90.50
2017-11-15T08:08:12.071Z,90.60
2017-11-15T08:10:39.723Z,90.90
2017-11-15T08:13:07.351Z,88.90
2017-11-15T08:15:35.007Z,88.90
2017-11-15T08:18:02.654Z,89.00
2017-11-15T08:20:31.065Z,88.70
2017-11-15T08:22:58.715Z,88.70
2017-11-15T08:25:26.336Z,88.50
2017-11-15T08:27:54.755Z,87.10
2017-11-15T08:30:22.390Z,87.10
2017-11-15T08:32:50.027Z,87.20
2017-11-15T08:35:17.683Z,87.10
2017-11-15T08:37:45.319Z,87.20
2017-11-15T08:40:12.978Z,86.00
2017-11-15T08:42:40.661Z,86.50
2017-11-15T08:45:08.286Z,86.50
2017-11-15T08:47:35.943Z,87.40
2017-11-15T08:50:03.567Z,84.50
2017-11-15T08:52:31.223Z,84.60
2017-11-15T08:54:58.852Z,84.40
2017-11-15T08:57:26.473Z,84.40
2017-11-15T08:59:54.133Z,83.80
2017-11-15T09:02:21.761Z,83.90
2017-11-15T09:04:49.471Z,83.60
2017-11-15T09:07:17.096Z,84.00
2017-11-15T09:09:44.726Z,83.80
2017-11-15T09:12:12.382Z,84.20
2017-11-15T09:14:40.003Z,82.80
2017-11-15T09:17:07.656Z,84.50
2017-11-15T09:19:35.315Z,82.40
2017-11-15T09:22:02.926Z,82.40
2017-11-15T09:24:30.576Z,82.10
2017-11-15T09:26:58.210Z,80.30
2017-11-15T09:29:25.868Z,80.20
2017-11-15T09:31:54.266Z,80.90
2017-11-15T09:34:21.887Z,80.80
2017-11-15T09:36:50.305Z,82.30
2017-11-15T09:39:17.922Z,82.20
2017-11-15T09:41:45.574Z,81.70
2017-11-15T09:44:13.200Z,80.70
2017-11-15T09:46:40.842Z,81.80
2017-11-15T09:49:09.271Z,83.10
2017-11-15T09:51:36.903Z,83.00
2017-11-15T09:54:04.547Z,82.60
2017-11-15T09:56:32.178Z,82.00
2017-11-15T09:58:59.815Z,82.80
2017-11-15T10:01:27.487Z,84.00
2017-11-15T10:03:55.109Z,83.00
2017-11-15T10:06:22.760Z,82.20
2017-11-15T10:08:50.412Z,80.30
2017-11-15T10:11:18.031Z,80.30
2017-11-15T10:13:45.691Z,80.20
2017-11-15T10:16:13.316Z,79.10
2017-11-15T10:18:41.732Z,79.60
2017-11-15T10:21:09.385Z,79.50
2017-11-15T10:23:37.047Z,79.60
2017-11-15T10:26:04.672Z,80.20
2017-11-15T10:28:32.291Z,80.00
2017-11-15T10:30:59.957Z,79.60
2017-11-15T10:33:27.615Z,79.00
2017-11-15T10:35:55.271Z,78.80
2017-11-15T10:38:22.887Z,77.80
2017-11-15T10:40:51.587Z,78.60
2017-11-15T10:43:19.268Z,78.60
2017-11-15T10:45:46.925Z,79.00
2017-11-15T10:48:14.579Z,79.60
2017-11-15T10:50:42.209Z,80.00
2017-11-15T10:53:09.872Z,79.00
2017-11-15T10:55:37.502Z,80.20
2017-11-15T10:58:05.152Z,79.10
2017-11-15T11:00:38.460Z,77.50
2017-11-15T11:03:06.873Z,79.40
2017-11-15T11:05:34.506Z,78.70
2017-11-15T11:08:02.154Z,79.00
2017-11-15T11:10:29.827Z,79.00
2017-11-15T11:12:57.455Z,79.10
2017-11-15T11:15:25.111Z,78.90
2017-11-15T11:17:52.735Z,80.30
2017-11-15T11:20:21.823Z,78.70
2017-11-15T11:22:49.481Z,79.00
2017-11-15T11:25:17.112Z,78.50
2017-11-15T11:27:44.768Z,79.50
2017-11-15T11:30:12.400Z,79.30
2017-11-15T11:32:40.029Z,78.30
2017-11-15T11:35:08.443Z,78.10
2017-11-15T11:37:36.091Z,78.10
2017-11-15T11:40:03.743Z,77.40
2017-11-15T11:42:31.380Z,78.30
2017-11-15T11:44:59.005Z,77.10
2017-11-15T11:47:26.659Z,77.60
2017-11-15T11:49:54.282Z,79.30
2017-11-15T11:52:21.926Z,78.60
2017-11-15T11:54:49.541Z,78.30
2017-11-15T11:57:17.195Z,79.00
2017-11-15T11:59:44.879Z,78.30
2017-11-15T12:02:12.512Z,79.60
2017-11-15T12:04:40.172Z,79.40
2017-11-15T12:07:07.796Z,79.20
2017-11-15T12:09:36.180Z,79.90
2017-11-15T12:12:03.825Z,80.00
2017-11-15T12:14:31.445Z,80.70
2017-11-15T12:16:59.863Z,80.20
2017-11-15T12:19:27.491Z,80.00
2017-11-15T12:21:55.120Z,80.20
2017-11-15T12:24:22.763Z,80.60
2017-11-15T12:26:50.392Z,80.70
2017-11-15T12:29:18.805Z,80.90
2017-11-15T12:31:46.433Z,80.80
2017-11-15T12:34:14.067Z,80.90
2017-11-15T12:36:41.714Z,81.60
2017-11-15T12:39:09.333Z,81.40
2017-11-15T12:41:37.756Z,81.50
2017-11-15T12:44:05.370Z,82.00
2017-11-15T12:46:32.995Z,82.20
2017-11-15T12:49:01.416Z,81.60
2017-11-15T12:51:29.035Z,81.60
2017-11-15T12:53:56.699Z,80.00
2017-11-15T12:56:24.318Z,80.30
2017-11-15T12:58:52.699Z,80.00
2017-11-15T13:01:20.348Z,80.00
2017-11-15T13:03:47.975Z,79.10
2017-11-15T13:06:15.623Z,78.10
2017-11-15T13:08:43.243Z,78.50
2017-11-15T13:11:10.867Z,79.10
2017-11-15T13:13:38.533Z,77.60
2017-11-15T13:16:06.156Z,76.60
2017-11-15T13:18:33.804Z,76.90
2017-11-15T13:21:01.426Z,77.40
2017-11-15T13:23:29.063Z,77.30
2017-11-15T13:25:56.720Z,76.40
2017-11-15T13:28:24.352Z,75.70
2017-11-15T13:30:52.021Z,76.90
2017-11-15T13:33:19.640Z,75.90
2017-11-15T13:35:47.359Z,77.40
2017-11-15T13:38:15.795Z,78.30
2017-11-15T13:40:43.416Z,78.30
2017-11-15T13:43:11.076Z,77.80
2017-11-15T13:45:38.692Z,78.60
2017-11-15T13:48:06.308Z,78.30
2017-11-15T13:50:34.728Z,78.20
2017-11-15T13:53:02.347Z,78.20
2017-11-15T13:55:30.013Z,78.00
2017-11-15T13:57:57.641Z,78.00
2017-11-15T14:00:25.258Z,78.30
2017-11-15T14:02:53.676Z,77.80
2017-11-15T14:05:21.366Z,77.70
2017-11-15T14:07:49.801Z,78.90
2017-11-15T14:10:17.427Z,78.90
2017-11-15T14:12:45.052Z,78.80
2017-11-15T14:15:12.708Z,79.10
2017-11-15T14:17:40.333Z,78.70
2017-11-15T14:20:08.752Z,79.10
2017-11-15T14:22:36.383Z,79.00
2017-11-15T14:25:04.006Z,79.90
2017-11-15T14:27:31.659Z,80.90
2017-11-15T14:29:59.283Z,80.80
2017-11-15T14:32:26.939Z,79.70
2017-11-15T14:34:54.647Z,80.30
2017-11-15T14:37:22.276Z,80.70
2017-11-15T14:39:49.935Z,81.40
2017-11-15T14:42:17.564Z,82.70
2017-11-15T14:44:45.238Z,82.70
2017-11-15T14:47:13.216Z,82.50
2017-11-15T14:49:41.608Z,83.80
2017-11-15T14:52:10.483Z,83.60
2017-11-15T14:54:38.418Z,83.90
2017-11-15T14:57:06.070Z,83.90
2017-11-15T14:59:33.690Z,83.00
2017-11-15T15:02:02.112Z,83.00
2017-11-15T15:04:29.726Z,82.30
2017-11-15T15:06:57.347Z,81.40
2017-11-15T15:09:25.000Z,82.00
2017-11-15T15:11:53.378Z,84.70
2017-11-15T15:14:21.800Z,83.80
2017-11-15T15:16:49.436Z,83.10
2017-11-15T15:19:17.091Z,83.60
2017-11-15T15:21:44.751Z,82.50
2017-11-15T15:24:12.442Z,82.70
2017-11-15T15:26:40.100Z,83.20
2017-11-15T15:29:07.739Z,83.80
2017-11-15T15:31:35.391Z,83.60
2017-11-15T15:34:03.073Z,83.20
2017-11-15T15:36:30.736Z,82.70
2017-11-15T15:38:58.539Z,82.80
2017-11-15T15:41:26.167Z,83.00
2017-11-15T15:43:53.819Z,84.40
2017-11-15T15:46:21.467Z,85.40
2017-11-15T15:48:49.131Z,84.70
2017-11-15T15:51:16.808Z,83.70
2017-11-15T15:53:44.703Z,83.60
2017-11-15T15:56:12.334Z,82.80
2017-11-15T15:58:40.723Z,83.40
2017-11-15T16:01:08.395Z,83.40
2017-11-15T16:03:36.035Z,84.50
2017-11-15T16:06:05.012Z,84.70
2017-11-15T16:08:32.642Z,84.90
2017-11-15T16:11:00.302Z,85.00
2017-11-15T16:13:27.918Z,85.30
2017-11-15T16:15:56.300Z,85.00
2017-11-15T16:18:23.948Z,84.30
2017-11-15T16:20:51.563Z,84.10
2017-11-15T16:23:19.983Z,83.50
2017-11-15T16:25:47.609Z,83.50
2017-11-15T16:28:15.279Z,82.90
2017-11-15T16:30:42.904Z,83.20
2017-11-15T16:33:10.549Z,83.50
2017-11-15T16:35:38.318Z,84.10
2017-11-15T16:38:05.959Z,84.10
2017-11-15T16:40:33.636Z,83.80
2017-11-15T16:43:01.276Z,85.40
2017-11-15T16:45:28.941Z,86.30
2017-11-15T16:47:56.563Z,87.20
2017-11-15T16:50:24.199Z,88.00
2017-11-15T16:52:51.994Z,87.40
2017-11-15T16:55:20.404Z,87.60
2017-11-15T16:57:48.060Z,87.60
2017-11-15T17:00:15.692Z,88.20
2017-11-15T17:02:43.385Z,88.30
2017-11-15T17:05:11.024Z,87.50
2017-11-15T17:07:38.761Z,87.00
2017-11-15T17:10:06.424Z,86.40
2017-11-15T17:12:34.056Z,85.90
2017-11-15T17:15:01.813Z,85.70
2017-11-15T17:17:29.451Z,85.80
2017-11-15T17:19:57.112Z,86.30
2017-11-15T17:22:24.734Z,86.10
2017-11-15T17:24:52.395Z,85.40
2017-11-15T17:27:20.048Z,86.30
2017-11-15T17:29:49.515Z,85.80
2017-11-15T17:32:18.041Z,85.70
2017-11-15T17:34:45.692Z,85.40
2017-11-15T17:37:13.354Z,84.90
2017-11-15T17:39:41.983Z,84.90
2017-11-15T17:42:09.619Z,85.10
2017-11-15T17:44:37.280Z,85.50
2017-11-15T17:47:06.455Z,86.20
2017-11-15T17:49:34.989Z,86.10
2017-11-15T17:52:02.649Z,85.80
2017-11-15T17:57:05.943Z,86.00
2017-11-15T17:59:34.387Z,85.80
2017-11-15T18:02:02.508Z,85.70
2017-11-15T18:04:30.323Z,85.60
2017-11-15T18:06:58.762Z,86.00
2017-11-15T18:09:28.272Z,86.00
2017-11-15T18:11:56.734Z,85.80
2017-11-15T18:14:25.933Z,85.40
2017-11-15T18:16:54.980Z,86.10
2017-11-15T18:19:22.606Z,86.10
2017-11-15T18:21:50.235Z,87.60
2017-11-15T18:24:17.888Z,85.70
2017-11-15T18:26:45.518Z,84.10
2017-11-15T18:29:14.213Z,83.20
2017-11-15T18:31:41.834Z,84.20
2017-11-15T18:34:09.686Z,84.20
2017-11-15T18:36:38.740Z,84.60
2017-11-15T18:39:06.411Z,84.60
2017-11-15T18:41:34.074Z,84.70
2017-11-15T18:44:01.710Z,84.60
2017-11-15T18:46:31.574Z,85.10
2017-11-15T18:49:00.588Z,86.40
2017-11-15T18:51:28.246Z,86.30
2017-11-15T18:53:55.882Z,86.20
2017-11-15T18:56:23.513Z,85.40
2017-11-15T18:58:51.941Z,85.40
2017-11-15T19:01:19.554Z,85.40
2017-11-15T19:03:47.227Z,85.20
2017-11-15T19:06:16.638Z,84.70
2017-11-15T19:08:44.297Z,84.20
2017-11-15T19:11:13.075Z,85.30
2017-11-15T19:13:42.653Z,85.60
2017-11-15T19:16:10.311Z,85.60
2017-11-15T19:18:37.956Z,85.00
2017-11-15T19:21:05.619Z,84.60
2017-11-15T19:23:33.235Z,84.20
2017-11-15T19:26:01.012Z,84.50
2017-11-15T19:28:29.437Z,84.40
2017-11-15T19:30:57.069Z,84.50
2017-11-15T19:33:24.762Z,85.60
2017-11-15T19:35:52.485Z,85.70
2017-11-15T19:38:20.149Z,85.50
2017-11-15T19:40:48.550Z,85.50
2017-11-15T19:43:16.203Z,85.50
2017-11-15T19:45:43.844Z,85.20
2017-11-15T19:48:11.511Z,84.90
2017-11-15T19:50:39.143Z,84.60
2017-11-15T19:53:06.764Z,84.60
2017-11-15T19:55:34.425Z,84.90
2017-11-15T19:58:02.048Z,85.00
2017-11-15T20:00:30.468Z,85.70
2017-11-15T20:02:58.092Z,85.70
2017-11-15T20:05:25.759Z,85.30
2017-11-15T20:07:53.409Z,85.30
2017-11-15T20:10:21.260Z,85.60
2017-11-15T20:12:49.026Z,85.60
2017-11-15T20:15:17.441Z,85.80
2017-11-15T20:17:45.175Z,85.80
2017-11-15T20:20:13.700Z,86.60
2017-11-15T20:22:41.395Z,86.60
2017-11-15T20:25:09.013Z,86.30
2017-11-15T20:27:37.561Z,87.00
2017-11-15T20:30:05.243Z,87.00
2017-11-15T20:32:33.640Z,85.00
2017-11-15T20:35:01.301Z,85.00
2017-11-15T20:37:28.927Z,85.00
2017-11-15T20:39:56.581Z,86.00
2017-11-15T20:42:24.211Z,86.10
2017-11-15T20:44:51.845Z,85.20
2017-11-15T20:47:19.505Z,85.20
2017-11-15T20:49:47.386Z,85.10
2017-11-15T20:52:15.061Z,85.90
2017-11-15T20:54:42.729Z,86.10
2017-11-15T20:57:11.392Z,85.60
2017-11-15T20:59:41.284Z,85.70
2017-11-15T21:02:08.911Z,85.70
2017-11-15T21:04:36.604Z,85.90
2017-11-15T21:07:05.005Z,86.90
2017-11-15T21:09:32.680Z,86.90
2017-11-15T21:12:00.302Z,87.10
2017-11-15T21:14:28.032Z,86.40
2017-11-15T21:16:55.663Z,86.90
2017-11-15T21:19:23.290Z,86.10
2017-11-15T21:21:51.709Z,86.20
2017-11-15T21:24:19.340Z,86.10
2017-11-15T21:26:47.017Z,86.60
2017-11-15T21:29:14.651Z,86.50
2017-11-15T21:31:42.319Z,86.70
2017-11-15T21:34:10.009Z,87.30
2017-11-15T21:36:37.826Z,86.00
2017-11-15T21:39:05.482Z,85.80
2017-11-15T21:41:33.868Z,87.00
2017-11-15T21:44:01.521Z,87.00
2017-11-15T21:46:29.140Z,86.40
2017-11-15T21:48:57.579Z,86.70
2017-11-15T21:51:25.212Z,86.60
2017-11-15T21:53:52.847Z,86.10
2017-11-15T21:56:20.519Z,85.90
2017-11-15T21:58:48.145Z,85.90
2017-11-15T22:01:15.818Z,86.10
2017-11-15T22:03:43.613Z,86.20
2017-11-15T22:06:11.282Z,86.80
2017-11-15T22:08:38.908Z,87.00
2017-11-15T22:11:06.531Z,87.20
2017-11-15T22:13:34.961Z,87.20
2017-11-15T22:16:02.618Z,87.20
2017-11-15T22:18:30.282Z,87.90
2017-11-15T22:20:58.676Z,87.20
2017-11-15T22:23:26.412Z,87.10
2017-11-15T22:25:54.056Z,87.70
2017-11-15T22:28:21.806Z,88.10
2017-11-15T22:30:49.488Z,88.40
2017-11-15T22:33:17.146Z,87.50
2017-11-15T22:35:44.831Z,86.90
2017-11-15T22:38:13.285Z,88.70
2017-11-15T22:40:40.944Z,88.30
2017-11-15T22:43:09.353Z,88.20
2017-11-15T22:45:37.013Z,88.00
2017-11-15T22:48:05.487Z,88.00
2017-11-15T22:50:33.117Z,87.90
2017-11-15T22:53:00.784Z,88.00
2017-11-15T22:55:28.399Z,87.70
2017-11-15T22:57:56.071Z,87.50
2017-11-15T23:00:23.719Z,87.60
2017-11-15T23:02:51.343Z,87.60
2017-11-15T23:05:18.995Z,87.10
2017-11-15T23:07:46.622Z,86.60
2017-11-15T23:10:14.331Z,87.60
2017-11-15T23:12:41.964Z,86.60
2017-11-15T23:15:09.625Z,87.30
2017-11-15T23:17:37.247Z,86.00
2017-11-15T23:20:04.879Z,85.10
2017-11-15T23:25:06.463Z,85.10
2017-11-15T23:27:34.120Z,86.20
2017-11-15T23:30:02.519Z,87.80
2017-11-15T23:32:30.137Z,87.80
2017-11-15T23:34:58.572Z,88.60
2017-11-15T23:39:59.079Z,89.00
2017-11-15T23:42:26.703Z,88.60
2017-11-15T23:44:54.344Z,89.20
2017-11-15T23:47:22.254Z,89.10
2017-11-15T23:49:50.654Z,89.80
2017-11-15T23:52:18.321Z,89.70
2017-11-15T23:54:45.961Z,89.90
2017-11-15T23:57:13.591Z,89.80
2017-11-15T23:59:41.247Z,90.30
